Miami Gardens, Florida
Current Conditions -  °F | °C
As of 5:53 PM on Saturday 25 Oct 2014 (Local Time) from KOPF Reporting Station
Scattered Clouds Scattered Clouds  
Wind Chill: 79°   Ceiling: Unl
Heat Index: 80°   Visibility: 10mi
Dew Point: 61°   Wind: 12mph
Humidity: 54%   Direction: 50°NE
Pressure: 29.89"   Gusts: NA
Location:  25.9357°N, 80.3817°W
Report Text: KOPF 252153Z 05010KT 10SM SCT050 SCT060 26/16 A2989 RMK AO2 SLP124 T02610161 $
Loading
Personal Weather Stations






























Interactive Weather Map
Tropical Storm Tracking
New forecast layout! Learn more

10-Day Weather Forecast

Advertisements
Track Severe Weather on mobile